4NE1 weather

Mc Millan Ranch Airport
Milburn, Nebraska, United States

Public forecast

Using degrees Fahrenheit for public forecast. Weather courtesy of forecast.io.

Closest aviation weather report (METAR) to Mc Millan Ranch Airport

Closest report is Broken Bow Municipal Airport, 19.7 nm (36.5 km) SSE. Retrieved 2019/10/21 07:53 UTC (39 minutes ago):

KBBW 210753Z AUTO 31024G42KT 10SM OVC020 05/01 A2951 RMK AO2 PK WND 30042/0747 SLP991 T00500011

Closest aviation forecast (TAF) to Mc Millan Ranch Airport

Closest forecast is North Platte Regional Airport Lee Bird Field, 56.3 nm (104.3 km) SW. Retrieved 2019/10/21 06:30 UTC (2 hours ago):

TAF KLBF 210528Z 2106/2206 33026G42KT P6SM OVC023 FM210800 31024G34KT P6SM BKN035 WS020/32055KT FM211400 31026G36KT P6SM SCT070 FM220000 32016KT P6SM FEW250 FM220400 30006KT P6SM FEW250 WS020/33040KT